createdAt,value
2022-08-24T05:52:25.654Z,17.42
2022-08-24T05:54:57.006Z,17.56
2022-08-24T05:57:23.941Z,17.64
2022-08-24T05:59:50.649Z,17.66
2022-08-24T06:02:17.843Z,17.68
2022-08-24T06:04:45.050Z,17.70
2022-08-24T06:07:11.814Z,17.72
2022-08-24T06:09:39.492Z,17.79
2022-08-24T06:12:06.585Z,17.79
2022-08-24T06:14:34.403Z,17.81
2022-08-24T06:17:01.707Z,17.87
2022-08-24T06:19:28.194Z,17.92
2022-08-24T06:21:55.231Z,17.94
2022-08-24T06:24:45.330Z,17.92
2022-08-24T06:27:21.521Z,17.99
2022-08-24T06:29:49.071Z,17.93
2022-08-24T06:32:15.485Z,17.90
2022-08-24T06:34:41.795Z,17.92
2022-08-24T06:37:08.114Z,18.08
2022-08-24T06:39:34.595Z,18.11
2022-08-24T06:42:00.916Z,18.17
2022-08-24T06:44:27.424Z,18.16
2022-08-24T06:46:53.877Z,18.22
2022-08-24T06:49:20.224Z,18.26
2022-08-24T06:51:50.622Z,18.30
2022-08-24T06:54:20.909Z,18.31
2022-08-24T06:56:47.226Z,18.24
2022-08-24T06:59:13.531Z,18.32
2022-08-24T07:01:39.876Z,18.34
2022-08-24T07:04:06.205Z,18.39
2022-08-24T07:06:32.535Z,18.34
2022-08-24T07:08:58.900Z,18.45
2022-08-24T07:11:25.503Z,18.45
2022-08-24T07:13:51.961Z,18.46
2022-08-24T07:16:19.330Z,18.54
2022-08-24T07:18:49.861Z,18.43
2022-08-24T07:21:19.292Z,18.50
2022-08-24T07:23:46.302Z,18.54
2022-08-24T07:26:21.779Z,18.48
2022-08-24T07:28:52.391Z,18.65
2022-08-24T07:31:19.007Z,18.58
2022-08-24T07:33:45.388Z,18.58
2022-08-24T07:36:12.851Z,18.67
2022-08-24T07:38:48.913Z,18.81
2022-08-24T07:41:38.232Z,18.77
2022-08-24T07:44:01.546Z,18.78
2022-08-24T07:46:28.361Z,18.84
2022-08-24T07:49:05.041Z,18.91
2022-08-24T07:51:44.980Z,19.02
2022-08-24T07:54:13.857Z,19.00
2022-08-24T07:56:40.538Z,19.00
2022-08-24T07:59:10.930Z,18.93
2022-08-24T08:01:39.290Z,19.03
2022-08-24T08:04:06.189Z,19.09
2022-08-24T08:06:32.473Z,19.11
2022-08-24T08:08:58.954Z,19.18
2022-08-24T08:11:25.273Z,19.19
2022-08-24T08:13:51.569Z,19.22
2022-08-24T08:16:18.024Z,19.25
2022-08-24T08:18:45.530Z,19.19
2022-08-24T08:21:32.153Z,19.22
2022-08-24T08:24:16.605Z,19.22
2022-08-24T08:26:49.261Z,19.34
2022-08-24T08:29:15.844Z,19.35
2022-08-24T08:31:42.699Z,19.43
2022-08-24T08:34:09.756Z,19.44
2022-08-24T08:36:36.579Z,19.37
2022-08-24T08:39:03.128Z,19.40
2022-08-24T08:41:49.967Z,19.40
2022-08-24T08:44:30.111Z,19.42
2022-08-24T08:46:59.401Z,19.44
2022-08-24T08:49:41.156Z,19.52
2022-08-24T08:52:07.528Z,19.44
2022-08-24T08:54:44.357Z,19.45
2022-08-24T08:57:19.990Z,19.56
2022-08-24T08:59:55.938Z,19.44
2022-08-24T09:02:30.647Z,19.55
2022-08-24T09:05:10.777Z,19.56
2022-08-24T09:08:02.258Z,19.50
2022-08-24T09:11:07.434Z,19.55
2022-08-24T09:13:49.466Z,19.56
2022-08-24T09:16:34.449Z,19.57
2022-08-24T09:19:19.460Z,19.69
2022-08-24T09:21:49.802Z,19.65
2022-08-24T09:24:29.403Z,19.68
2022-08-24T09:27:09.581Z,19.73
2022-08-24T09:29:54.713Z,19.80
2022-08-24T09:32:28.522Z,19.82
2022-08-24T09:35:00.268Z,19.81
2022-08-24T09:37:36.777Z,19.89
2022-08-24T09:40:13.395Z,19.91
2022-08-24T09:42:52.154Z,19.95
2022-08-24T09:45:44.457Z,19.99
2022-08-24T09:48:20.495Z,20.02
2022-08-24T09:50:46.800Z,20.05
2022-08-24T09:53:31.293Z,20.08
2022-08-24T09:56:00.716Z,20.12
2022-08-24T09:58:46.076Z,20.14
2022-08-24T10:01:30.982Z,20.21
2022-08-24T10:03:57.359Z,20.21
2022-08-24T10:06:48.709Z,20.23
2022-08-24T10:09:33.965Z,20.26
2022-08-24T10:12:15.589Z,20.30
2022-08-24T10:14:44.656Z,20.26
2022-08-24T10:17:29.906Z,20.25
2022-08-24T10:19:56.267Z,20.39
2022-08-24T10:22:22.559Z,20.30
2022-08-24T10:25:03.028Z,20.28
2022-08-24T10:27:49.769Z,20.40
2022-08-24T10:30:16.134Z,20.30
2022-08-24T10:33:17.064Z,20.37
2022-08-24T10:35:52.519Z,20.33
2022-08-24T10:38:53.072Z,20.39
2022-08-24T10:41:25.281Z,20.39
2022-08-24T10:44:10.327Z,20.40
2022-08-24T10:46:59.741Z,20.38
2022-08-24T10:49:45.090Z,20.53
2022-08-24T10:52:12.172Z,20.44
2022-08-24T10:54:38.639Z,20.49
2022-08-24T10:57:15.126Z,20.38
2022-08-24T10:59:54.978Z,20.51
2022-08-24T11:02:31.700Z,20.58
2022-08-24T11:04:59.716Z,20.66
2022-08-24T11:07:26.366Z,20.72
2022-08-24T11:09:55.868Z,20.76
2022-08-24T11:12:32.542Z,20.81
2022-08-24T11:15:04.227Z,20.84
2022-08-24T11:17:32.252Z,20.90
2022-08-24T11:19:59.324Z,20.93
2022-08-24T11:22:28.814Z,20.97
2022-08-24T11:24:58.547Z,21.01
2022-08-24T11:27:27.919Z,21.08
2022-08-24T11:29:55.479Z,21.16
2022-08-24T11:32:33.884Z,20.91
2022-08-24T11:35:01.986Z,21.15
2022-08-24T11:37:35.267Z,21.22
2022-08-24T11:40:02.254Z,21.25
2022-08-24T11:42:36.014Z,20.99
2022-08-24T11:45:14.774Z,21.12
2022-08-24T11:47:53.341Z,21.21
2022-08-24T11:50:19.628Z,21.22
2022-08-24T11:52:45.921Z,21.27
2022-08-24T11:55:24.197Z,21.26
2022-08-24T11:57:59.110Z,21.23
2022-08-24T12:00:32.688Z,21.23
2022-08-24T12:03:05.733Z,21.26
2022-08-24T12:05:47.413Z,21.28
2022-08-24T12:08:21.669Z,21.28
2022-08-24T12:11:00.019Z,21.25
2022-08-24T12:13:58.884Z,21.28
2022-08-24T12:16:33.569Z,21.30
2022-08-24T12:19:07.007Z,21.32
2022-08-24T12:21:36.389Z,21.31
2022-08-24T12:24:03.767Z,21.36
2022-08-24T12:26:36.294Z,21.41
2022-08-24T12:29:25.572Z,21.23
2022-08-24T12:31:56.186Z,21.40
2022-08-24T12:34:41.444Z,21.37
2022-08-24T12:37:34.915Z,21.37
2022-08-24T12:40:20.046Z,21.28
2022-08-24T12:42:56.145Z,21.38
2022-08-24T12:45:23.674Z,21.51
2022-08-24T12:47:53.029Z,21.56
2022-08-24T12:50:27.354Z,21.69
2022-08-24T12:53:09.022Z,21.71
2022-08-24T12:56:05.542Z,21.68
2022-08-24T12:58:53.978Z,21.68
2022-08-24T13:01:21.954Z,21.69
2022-08-24T13:04:03.450Z,21.70
2022-08-24T13:06:59.590Z,21.71
2022-08-24T13:09:28.763Z,21.72
2022-08-24T13:11:58.790Z,21.70
2022-08-24T13:14:29.613Z,21.75
2022-08-24T13:16:56.423Z,21.75
2022-08-24T13:19:22.741Z,21.77
2022-08-24T13:21:51.959Z,21.80
2022-08-24T13:24:27.603Z,21.81
2022-08-24T13:26:57.847Z,21.88
2022-08-24T13:29:28.351Z,21.87
2022-08-24T13:31:59.287Z,21.88
2022-08-24T13:34:36.046Z,21.93
2022-08-24T13:37:10.307Z,21.91
2022-08-24T13:39:45.679Z,21.95
2022-08-24T13:42:23.206Z,21.92
2022-08-24T13:44:49.545Z,21.92
2022-08-24T13:47:22.746Z,21.96
2022-08-24T13:50:04.408Z,21.92
2022-08-24T13:52:41.293Z,21.93
2022-08-24T13:55:23.396Z,21.93
2022-08-24T13:58:10.746Z,21.95
2022-08-24T14:00:43.913Z,21.94
2022-08-24T14:03:19.099Z,21.96
2022-08-24T14:05:48.611Z,22.05
2022-08-24T14:08:27.708Z,22.12
2022-08-24T14:11:17.114Z,22.11
2022-08-24T14:14:01.949Z,22.17
2022-08-24T14:17:05.957Z,22.18
2022-08-24T14:19:44.943Z,22.11
2022-08-24T14:22:11.250Z,22.07
2022-08-24T14:24:46.079Z,22.06
2022-08-24T14:27:45.419Z,22.01
2022-08-24T14:30:17.822Z,22.04
2022-08-24T14:32:53.330Z,21.97
2022-08-24T14:35:25.225Z,22.00
2022-08-24T14:38:03.850Z,22.06
2022-08-24T14:40:35.040Z,22.15
2022-08-24T14:43:03.860Z,22.15
2022-08-24T14:45:48.907Z,22.17
2022-08-24T14:48:19.796Z,22.17
2022-08-24T14:51:04.934Z,22.17
2022-08-24T14:53:44.070Z,22.14
2022-08-24T14:56:13.124Z,22.15
2022-08-24T14:58:48.229Z,22.17
2022-08-24T15:01:14.612Z,22.15
2022-08-24T15:03:59.801Z,22.13
2022-08-24T15:06:44.938Z,22.14
2022-08-24T15:09:18.981Z,22.18
2022-08-24T15:11:47.296Z,22.25
2022-08-24T15:14:33.792Z,22.32
2022-08-24T15:17:13.784Z,22.36
2022-08-24T15:19:49.425Z,22.36
2022-08-24T15:22:34.569Z,22.38
2022-08-24T15:25:05.942Z,22.42
2022-08-24T15:27:48.319Z,22.42
2022-08-24T15:30:21.348Z,22.45
2022-08-24T15:32:49.461Z,22.51
2022-08-24T15:35:27.311Z,22.56
2022-08-24T15:37:53.705Z,22.54
2022-08-24T15:40:29.434Z,22.51
2022-08-24T15:43:03.878Z,22.54
2022-08-24T15:45:31.050Z,22.49
2022-08-24T15:47:58.076Z,22.51
2022-08-24T15:50:29.563Z,22.56
2022-08-24T15:52:56.208Z,22.53
2022-08-24T15:55:40.323Z,22.47
2022-08-24T15:58:21.994Z,22.47
2022-08-24T16:01:07.165Z,22.64
2022-08-24T16:03:45.308Z,22.48
2022-08-24T16:06:19.394Z,22.52
2022-08-24T16:09:04.465Z,22.55
2022-08-24T16:11:33.489Z,22.38
2022-08-24T16:14:00.287Z,22.39
2022-08-24T16:16:34.424Z,22.38
2022-08-24T16:19:02.282Z,22.30
2022-08-24T16:21:40.033Z,22.31
2022-08-24T16:24:23.002Z,22.29
2022-08-24T16:26:49.326Z,22.25
2022-08-24T16:29:44.822Z,22.23
2022-08-24T16:32:22.087Z,22.18
2022-08-24T16:35:01.095Z,22.15
2022-08-24T16:37:27.425Z,22.12
2022-08-24T16:39:53.813Z,22.11
2022-08-24T16:42:22.490Z,22.11
2022-08-24T16:44:49.380Z,22.09
2022-08-24T16:47:15.697Z,22.15
2022-08-24T16:49:42.169Z,22.11
2022-08-24T16:52:08.886Z,22.08
2022-08-24T16:54:35.262Z,22.12
2022-08-24T16:57:05.262Z,22.17
2022-08-24T16:59:32.673Z,22.21
2022-08-24T17:01:59.584Z,22.19
2022-08-24T17:04:26.108Z,22.23
2022-08-24T17:06:55.516Z,22.14
2022-08-24T17:09:22.161Z,22.09
2022-08-24T17:11:49.547Z,21.99
2022-08-24T17:14:16.377Z,22.01
2022-08-24T17:16:43.361Z,21.98
2022-08-24T17:19:12.188Z,21.97
2022-08-24T17:21:39.228Z,21.93
2022-08-24T17:24:06.602Z,21.93
2022-08-24T17:26:33.194Z,21.88
2022-08-24T17:29:02.418Z,21.99
2022-08-24T17:31:30.968Z,21.97
2022-08-24T17:33:58.098Z,21.78
2022-08-24T17:36:24.912Z,21.89
2022-08-24T17:38:55.702Z,21.79
2022-08-24T17:41:23.012Z,21.73
2022-08-24T17:43:49.503Z,21.53
2022-08-24T17:46:17.244Z,21.51
2022-08-24T17:48:44.692Z,21.50
2022-08-24T17:51:11.034Z,21.45
2022-08-24T17:53:37.437Z,21.57
2022-08-24T17:56:04.201Z,21.39
2022-08-24T17:58:30.541Z,21.37
2022-08-24T18:00:56.889Z,21.34
2022-08-24T18:03:23.238Z,21.29
2022-08-24T18:05:49.656Z,21.25
2022-08-24T18:08:16.030Z,21.29
2022-08-24T18:10:42.353Z,21.21
2022-08-24T18:13:09.526Z,21.26
2022-08-24T18:15:36.486Z,21.16
2022-08-24T18:18:04.273Z,21.21
2022-08-24T18:20:38.449Z,21.23
2022-08-24T18:23:05.051Z,21.18
2022-08-24T18:25:40.174Z,21.22
2022-08-24T18:28:06.524Z,21.24
2022-08-24T18:30:33.040Z,21.30
2022-08-24T18:33:01.745Z,21.37
2022-08-24T18:35:28.214Z,21.40
2022-08-24T18:37:57.783Z,21.40
2022-08-24T18:40:27.133Z,21.42
2022-08-24T18:42:59.752Z,21.32
2022-08-24T18:45:29.407Z,21.36
2022-08-24T18:47:55.800Z,21.33
2022-08-24T18:50:22.198Z,21.32
2022-08-24T18:52:48.728Z,21.23
2022-08-24T18:55:15.192Z,21.19
2022-08-24T18:57:41.502Z,21.18
2022-08-24T19:00:09.794Z,21.05
2022-08-24T19:02:36.504Z,20.99
2022-08-24T19:05:10.754Z,20.87
2022-08-24T19:07:39.846Z,20.76
2022-08-24T19:10:08.520Z,20.69
2022-08-24T19:12:37.859Z,20.65
2022-08-24T19:15:05.223Z,20.81
2022-08-24T19:17:31.615Z,20.62
2022-08-24T19:19:58.497Z,20.51
2022-08-24T19:22:26.021Z,20.40
2022-08-24T19:24:52.923Z,20.52
2022-08-24T19:27:19.542Z,20.46
2022-08-24T19:29:55.553Z,20.51
2022-08-24T19:32:24.218Z,20.62
2022-08-24T19:34:51.755Z,20.40
2022-08-24T19:37:18.503Z,20.39
2022-08-24T19:39:45.879Z,20.57
2022-08-24T19:42:15.258Z,20.59
2022-08-24T19:45:00.333Z,20.56
2022-08-24T19:47:27.142Z,20.48
2022-08-24T19:49:53.573Z,20.31
2022-08-24T19:52:20.334Z,20.35
2022-08-24T19:54:47.151Z,20.40
2022-08-24T19:57:32.311Z,20.18
2022-08-24T19:59:59.885Z,20.08
2022-08-24T20:02:26.608Z,20.04
2022-08-24T20:04:53.005Z,19.93
2022-08-24T20:07:19.353Z,19.94
2022-08-24T20:09:46.100Z,20.14
2022-08-24T20:12:12.953Z,20.09
2022-08-24T20:14:39.703Z,20.10
2022-08-24T20:17:06.477Z,20.25
2022-08-24T20:19:35.023Z,20.43
2022-08-24T20:22:01.358Z,20.39
2022-08-24T20:24:33.648Z,20.27
2022-08-24T20:27:03.066Z,20.31
2022-08-24T20:29:29.458Z,20.38
2022-08-24T20:32:01.195Z,20.33
2022-08-24T20:34:27.695Z,20.36
2022-08-24T20:36:54.023Z,20.41
2022-08-24T20:39:22.810Z,20.34
2022-08-24T20:41:49.259Z,20.32
2022-08-24T20:44:15.612Z,20.37
2022-08-24T20:46:42.663Z,20.15
2022-08-24T20:49:15.322Z,20.03
2022-08-24T20:51:43.439Z,20.14
2022-08-24T20:54:10.502Z,20.10
2022-08-24T20:56:37.953Z,19.99
2022-08-24T20:59:05.697Z,20.09
2022-08-24T21:01:32.559Z,19.90
2022-08-24T21:04:04.291Z,19.82
2022-08-24T21:06:31.574Z,20.05
2022-08-24T21:08:57.855Z,19.87
2022-08-24T21:11:24.181Z,19.65
2022-08-24T21:13:50.499Z,19.90
2022-08-24T21:16:16.882Z,19.85
2022-08-24T21:18:43.530Z,19.71
2022-08-24T21:21:10.275Z,19.64
2022-08-24T21:23:36.629Z,19.39
2022-08-24T21:26:04.702Z,19.63
2022-08-24T21:28:31.607Z,19.58
2022-08-24T21:31:00.484Z,19.46
2022-08-24T21:33:47.483Z,19.57
2022-08-24T21:36:14.862Z,19.37
2022-08-24T21:38:41.212Z,19.20
2022-08-24T21:41:11.837Z,19.20
2022-08-24T21:43:38.169Z,19.33
2022-08-24T21:46:05.731Z,19.44
2022-08-24T21:48:32.159Z,19.51
2022-08-24T21:50:58.510Z,19.64
2022-08-24T21:53:28.704Z,19.67
2022-08-24T21:55:55.905Z,19.69
2022-08-24T21:58:23.939Z,19.66
2022-08-24T22:00:51.077Z,19.68
2022-08-24T22:03:17.432Z,19.70
2022-08-24T22:05:43.805Z,19.68
2022-08-24T22:08:10.155Z,19.71
2022-08-24T22:10:36.483Z,19.66
2022-08-24T22:13:04.754Z,19.71
2022-08-24T22:15:33.098Z,19.67
2022-08-24T22:17:59.944Z,19.73
2022-08-24T22:20:26.357Z,19.70
2022-08-24T22:22:52.691Z,19.70
2022-08-24T22:25:19.082Z,19.71
2022-08-24T22:27:45.908Z,19.64
2022-08-24T22:30:13.513Z,19.48
2022-08-24T22:32:39.817Z,19.44
2022-08-24T22:35:06.346Z,19.47
2022-08-24T22:37:34.885Z,19.26
2022-08-24T22:40:01.587Z,19.20
2022-08-24T22:42:28.405Z,18.83
2022-08-24T22:44:54.870Z,18.73
2022-08-24T22:47:24.168Z,18.88
2022-08-24T22:49:50.488Z,18.98
2022-08-24T22:52:16.839Z,18.84
2022-08-24T22:54:43.175Z,19.12
2022-08-24T22:57:09.587Z,19.12
2022-08-24T22:59:38.153Z,18.88
2022-08-24T23:02:06.364Z,18.75
2022-08-24T23:04:35.099Z,18.88
2022-08-24T23:07:02.265Z,18.56
2022-08-24T23:09:28.641Z,18.60
2022-08-24T23:12:09.000Z,18.54
2022-08-24T23:14:35.411Z,18.55
2022-08-24T23:17:02.152Z,18.75
2022-08-24T23:19:47.201Z,18.73
2022-08-24T23:22:15.356Z,18.94
2022-08-24T23:24:43.758Z,18.53
2022-08-24T23:27:10.939Z,18.36
2022-08-24T23:29:37.643Z,18.57
2022-08-24T23:32:04.339Z,18.73
2022-08-24T23:34:30.663Z,18.86
2022-08-24T23:36:56.968Z,18.82
2022-08-24T23:39:23.323Z,18.93
2022-08-24T23:41:49.668Z,19.01
2022-08-24T23:44:20.762Z,19.00
2022-08-24T23:46:47.556Z,19.05
2022-08-24T23:49:15.126Z,18.91
2022-08-24T23:51:41.925Z,18.97
2022-08-24T23:54:09.953Z,18.95
2022-08-24T23:56:37.752Z,19.01
2022-08-24T23:59:06.461Z,18.99
